Time;durP1;ratioP1;P1;durP2;ratioP2;P2;SDS_P1;SDS_P2;PMS_P1;PMS_P2;Temp;Humidity;BMP_temperature;BMP_pressure;BME280_temperature;BME280_humidity;BME280_pressure;Samples;Min_cycle;Max_cycle;Signal;HPM_P1;HPM_P2
2023/08/11 00:02:00;;;;;;;3.70;0.90;;;;;;;16.47;100.00;99675.15;109047;1253;72678;-50
2023/08/11 00:04:28;;;;;;;1.20;0.90;;;;;;;16.52;100.00;99669.76;109028;1254;58728;-50
2023/08/11 00:06:56;;;;;;;4.00;1.10;;;;;;;16.55;100.00;99669.67;108979;1253;62185;-50
2023/08/11 00:09:23;;;;;;;1.60;0.70;;;;;;;16.60;100.00;99668.08;108926;1253;72553;-50
2023/08/11 00:11:51;;;;;;;1.10;0.90;;;;;;;16.63;100.00;99665.88;108915;1256;67668;-50
2023/08/11 00:14:18;;;;;;;1.60;0.90;;;;;;;16.67;100.00;99667.01;108935;1253;73368;-51
2023/08/11 00:16:46;;;;;;;2.30;1.00;;;;;;;16.71;100.00;99663.63;108989;1253;61621;-50
2023/08/11 00:19:13;;;;;;;2.20;0.80;;;;;;;16.75;100.00;99660.64;108877;1254;59943;-50
2023/08/11 00:21:41;;;;;;;1.80;0.90;;;;;;;16.78;100.00;99659.09;108986;1253;72779;-49
2023/08/11 00:24:08;;;;;;;3.50;0.80;;;;;;;16.82;100.00;99659.59;108747;1253;65590;-49
2023/08/11 00:26:36;;;;;;;2.90;1.10;;;;;;;16.84;100.00;99657.96;104635;1256;71415;-48
2023/08/11 00:29:04;;;;;;;2.70;0.80;;;;;;;16.84;100.00;99653.21;104688;1254;61186;-48
2023/08/11 00:31:32;;;;;;;1.20;1.10;;;;;;;16.84;100.00;99650.30;104672;1253;60464;-50
2023/08/11 00:33:59;;;;;;;2.50;1.00;;;;;;;16.84;100.00;99649.80;104691;1253;73981;-50
2023/08/11 00:36:26;;;;;;;1.20;0.80;;;;;;;16.81;100.00;99651.63;104975;1258;67299;-50
2023/08/11 00:39:00;;;;;;;1.30;1.00;;;;;;;16.78;100.00;99648.09;104939;1253;72895;-46
2023/08/11 00:41:27;;;;;;;2.80;0.90;;;;;;;16.73;100.00;99646.48;106944;1253;62376;-49
2023/08/11 00:43:55;;;;;;;0.80;0.60;;;;;;;16.70;100.00;99646.36;105154;1257;60439;-49
2023/08/11 00:46:23;;;;;;;1.80;1.00;;;;;;;16.69;100.00;99643.16;104889;1253;74037;-47
2023/08/11 00:48:53;;;;;;;2.20;0.70;;;;;;;16.69;100.00;99640.62;104966;1253;66844;-48
2023/08/11 00:51:22;;;;;;;0.80;0.70;;;;;;;16.68;100.00;99640.64;104765;1253;72711;-49
2023/08/11 00:53:50;;;;;;;0.70;0.70;;;;;;;16.69;100.00;99642.98;105435;1258;61655;-48
2023/08/11 00:56:20;;;;;;;3.30;0.70;;;;;;;16.70;100.00;99644.55;106016;1257;60390;-48
2023/08/11 00:58:49;;;;;;;2.10;0.90;;;;;;;16.72;100.00;99640.20;104529;1253;72582;-48
2023/08/11 01:01:16;;;;;;;2.30;0.70;;;;;;;16.74;100.00;99638.97;105071;1253;68296;-49
2023/08/11 01:03:47;;;;;;;1.10;0.80;;;;;;;16.76;100.00;99638.80;105071;1258;72313;-48
2023/08/11 01:06:36;;;;;;;2.00;0.70;;;;;;;16.79;100.00;99635.48;104868;1258;60509;-49
2023/08/11 01:09:28;;;;;;;2.80;0.80;;;;;;;16.82;100.00;99627.86;104621;1253;61427;-48
2023/08/11 01:12:05;;;;;;;1.00;0.80;;;;;;;16.83;100.00;99622.69;104416;1253;73860;-46
2023/08/11 01:14:38;;;;;;;4.20;0.90;;;;;;;16.81;100.00;99621.80;104436;1253;68069;-48
2023/08/11 01:17:06;;;;;;;3.70;0.80;;;;;;;16.77;100.00;99626.77;105096;1253;72619;-50
2023/08/11 01:19:35;;;;;;;1.10;0.80;;;;;;;16.73;100.00;99617.33;105587;1253;60800;-50
2023/08/11 01:22:04;;;;;;;1.50;0.90;;;;;;;16.70;100.00;99616.66;104526;1260;60527;-47
2023/08/11 01:24:31;;;;;;;2.20;0.70;;;;;;;16.66;100.00;99611.47;104442;1254;72586;-49
2023/08/11 01:26:58;;;;;;;2.90;1.00;;;;;;;16.63;100.00;99610.05;104501;1259;66733;-48
2023/08/11 01:29:27;;;;;;;1.20;0.80;;;;;;;16.61;100.00;99609.09;104720;1255;73775;-48
2023/08/11 01:31:54;;;;;;;2.00;0.80;;;;;;;16.60;100.00;99609.88;104649;1254;60909;-49
2023/08/11 01:34:22;;;;;;;1.10;0.80;;;;;;;16.60;100.00;99606.05;104536;1253;60545;-48
2023/08/11 01:36:50;;;;;;;0.90;0.80;;;;;;;16.61;100.00;99601.70;104575;1253;72232;-49
2023/08/11 01:39:17;;;;;;;1.60;1.10;;;;;;;16.61;100.00;99598.21;104560;1256;67698;-50
2023/08/11 01:41:45;;;;;;;1.10;0.90;;;;;;;16.61;100.00;99596.80;104477;1254;71897;-49
2023/08/11 01:44:12;;;;;;;1.60;0.70;;;;;;;16.58;100.00;99597.86;104687;1253;61099;-50
2023/08/11 01:46:40;;;;;;;1.20;0.80;;;;;;;16.55;100.00;99596.83;104738;1253;60595;-48
2023/08/11 01:49:10;;;;;;;2.80;1.10;;;;;;;16.52;100.00;99600.92;104502;1253;72063;-49
2023/08/11 01:51:42;;;;;;;1.70;0.80;;;;;;;16.48;100.00;99597.77;104383;1258;67000;-50
2023/08/11 01:54:09;;;;;;;1.50;1.00;;;;;;;16.45;100.00;99593.86;104624;1253;71186;-50
2023/08/11 01:56:37;;;;;;;1.30;0.70;;;;;;;16.41;100.00;99593.73;104303;1253;60496;-49
2023/08/11 01:59:08;;;;;;;1.20;1.00;;;;;;;16.37;100.00;99589.73;104594;1261;60487;-49
2023/08/11 02:01:35;;;;;;;0.90;0.60;;;;;;;16.34;100.00;99589.27;104742;1253;73819;-50
2023/08/11 02:04:04;;;;;;;1.40;0.70;;;;;;;16.32;100.00;99585.98;104775;1260;66671;-51
2023/08/11 02:06:32;;;;;;;2.50;0.60;;;;;;;16.30;100.00;99585.02;104683;1253;72663;-52
2023/08/11 02:09:00;;;;;;;1.50;0.70;;;;;;;16.29;100.00;99583.45;104621;1253;61586;-51
2023/08/11 02:11:27;;;;;;;4.40;0.90;;;;;;;16.27;100.00;99584.32;104618;1253;60838;-52
2023/08/11 02:13:55;;;;;;;1.50;0.80;;;;;;;16.25;100.00;99584.27;108788;1253;73849;-52
2023/08/11 02:16:23;;;;;;;1.20;0.70;;;;;;;16.22;100.00;99584.48;107014;1253;65770;-51
2023/08/11 02:18:51;;;;;;;1.20;0.70;;;;;;;16.20;100.00;99590.61;105926;1259;72867;-51
2023/08/11 02:21:18;;;;;;;0.80;0.70;;;;;;;16.17;100.00;99590.65;104658;1261;62182;-50
2023/08/11 02:23:45;;;;;;;4.30;1.00;;;;;;;16.16;100.00;99588.77;104543;1257;60610;-50
2023/08/11 02:26:14;;;;;;;1.30;0.80;;;;;;;16.15;100.00;99590.11;104497;1253;74875;-51
2023/08/11 02:28:42;;;;;;;2.60;0.90;;;;;;;16.13;100.00;99593.33;105024;1254;66306;-49
2023/08/11 02:31:09;;;;;;;2.50;0.80;;;;;;;16.10;100.00;99594.11;104523;1255;71282;-49
2023/08/11 02:33:39;;;;;;;0.90;0.80;;;;;;;16.06;100.00;99595.14;107595;1256;60055;-51
2023/08/11 02:36:08;;;;;;;2.80;1.20;;;;;;;16.01;100.00;99595.13;104811;1256;60519;-50
2023/08/11 02:38:37;;;;;;;1.50;0.80;;;;;;;15.96;100.00;99587.16;109099;1253;74406;-52
2023/08/11 02:41:04;;;;;;;0.80;0.60;;;;;;;15.92;100.00;99583.46;105798;1259;67676;-51
2023/08/11 02:43:36;;;;;;;1.70;0.90;;;;;;;15.88;100.00;99581.57;104925;1253;72662;-51
2023/08/11 02:46:05;;;;;;;1.50;0.70;;;;;;;15.86;100.00;99581.16;104892;1253;62254;-50
2023/08/11 02:48:38;;;;;;;3.70;0.80;;;;;;;15.86;100.00;99580.44;109017;1253;59989;-52
2023/08/11 02:51:05;;;;;;;1.20;0.90;;;;;;;15.86;100.00;99582.23;109148;1253;73908;-52
2023/08/11 02:53:33;;;;;;;1.80;0.60;;;;;;;15.88;100.00;99579.98;109103;1253;66330;-52
2023/08/11 02:56:06;;;;;;;1.40;0.70;;;;;;;15.89;100.00;99578.27;109090;1253;73519;-51
2023/08/11 02:58:34;;;;;;;1.10;0.60;;;;;;;15.89;100.00;99576.45;109131;1253;60376;-52
2023/08/11 03:01:02;;;;;;;1.20;1.00;;;;;;;15.90;100.00;99571.70;108853;1253;59809;-52
2023/08/11 03:03:30;;;;;;;2.20;0.70;;;;;;;15.91;100.00;99569.98;108910;1253;76225;-52
2023/08/11 03:05:58;;;;;;;0.90;0.80;;;;;;;15.91;100.00;99565.77;109043;1253;65489;-53
2023/08/11 03:08:25;;;;;;;2.30;0.80;;;;;;;15.92;100.00;99570.80;108917;1256;73625;-52
2023/08/11 03:10:52;;;;;;;1.10;0.80;;;;;;;15.93;100.00;99573.05;108680;1253;59228;-51
2023/08/11 03:13:28;;;;;;;1.20;0.70;;;;;;;15.92;100.00;99570.95;108815;1253;58764;-51
2023/08/11 03:15:58;;;;;;;1.00;0.70;;;;;;;15.91;100.00;99568.88;108797;1253;72614;-52
2023/08/11 03:18:26;;;;;;;1.30;0.70;;;;;;;15.89;100.00;99567.98;108913;1253;67041;-52
2023/08/11 03:20:55;;;;;;;1.40;0.70;;;;;;;15.86;100.00;99567.43;108771;1255;73712;-52
2023/08/11 03:23:40;;;;;;;1.00;0.70;;;;;;;15.85;100.00;99570.41;108876;1253;60492;-52
2023/08/11 03:26:09;;;;;;;0.90;0.70;;;;;;;15.84;100.00;99570.81;104939;1254;60423;-51
2023/08/11 03:28:37;;;;;;;1.50;0.80;;;;;;;15.85;100.00;99574.03;105053;1258;74775;-50
2023/08/11 03:31:05;;;;;;;1.30;0.80;;;;;;;15.86;100.00;99573.23;104338;1254;65676;-51
2023/08/11 03:33:34;;;;;;;1.70;0.90;;;;;;;15.88;100.00;99571.80;106548;1256;72990;-52
2023/08/11 03:36:05;;;;;;;2.10;0.80;;;;;;;15.91;100.00;99576.85;104587;1257;60726;-50
2023/08/11 03:38:33;;;;;;;1.70;0.60;;;;;;;15.92;100.00;99575.88;105389;1254;61831;-51
2023/08/11 03:41:00;;;;;;;2.60;0.90;;;;;;;15.94;100.00;99577.36;104561;1252;73760;-51
2023/08/11 03:43:28;;;;;;;2.20;0.80;;;;;;;15.95;100.00;99582.16;105268;1253;66462;-52
2023/08/11 03:45:55;;;;;;;1.10;0.90;;;;;;;15.95;100.00;99580.90;105072;1256;73847;-51
2023/08/11 03:48:23;;;;;;;3.40;1.10;;;;;;;15.93;100.00;99582.83;104385;1253;60456;-50
2023/08/11 03:50:50;;;;;;;17.70;1.30;;;;;;;15.92;100.00;99585.30;104717;1258;60697;-52
2023/08/11 03:53:17;;;;;;;1.70;0.80;;;;;;;15.91;100.00;99588.11;104594;1254;72657;-52
2023/08/11 03:55:45;;;;;;;3.00;0.80;;;;;;;15.91;100.00;99593.36;105223;1254;67652;-52
2023/08/11 03:58:14;;;;;;;4.00;1.10;;;;;;;15.91;100.00;99590.41;105060;1253;71529;-50
2023/08/11 04:00:42;;;;;;;5.10;0.80;;;;;;;15.94;100.00;99588.05;104903;1253;60813;-51
2023/08/11 04:03:11;;;;;;;1.00;0.70;;;;;;;15.97;100.00;99582.74;105332;1257;60687;-51
2023/08/11 04:05:39;;;;;;;2.70;0.80;;;;;;;16.03;100.00;99582.69;104546;1253;72635;-52
2023/08/11 04:08:06;;;;;;;2.20;0.80;;;;;;;16.09;100.00;99584.19;104476;1254;66755;-51
2023/08/11 04:10:37;;;;;;;1.70;0.80;;;;;;;16.16;100.00;99583.13;104512;1259;71190;-52
2023/08/11 04:13:04;;;;;;;1.10;0.70;;;;;;;16.25;100.00;99584.81;104899;1257;60646;-50
2023/08/11 04:17:54;;;;;;;1.40;0.80;;;;;;;16.42;100.00;99594.58;101918;1292;601456;-52
2023/08/11 04:20:22;;;;;;;0.90;0.80;;;;;;;16.49;100.00;99606.21;104374;1266;59940;-52
2023/08/11 04:22:49;;;;;;;2.10;0.80;;;;;;;16.54;100.00;99608.33;104532;1270;60056;-52
2023/08/11 04:25:17;;;;;;;3.50;0.90;;;;;;;16.59;100.00;99613.56;104203;1269;72042;-53
2023/08/11 04:27:46;;;;;;;2.80;0.80;;;;;;;16.62;100.00;99613.57;104094;1265;65594;-52
2023/08/11 04:30:13;;;;;;;2.70;0.70;;;;;;;16.64;100.00;99614.10;104105;1269;71448;-52
2023/08/11 04:32:43;;;;;;;0.80;0.60;;;;;;;16.66;100.00;99613.82;104280;1263;139229;-52
2023/08/11 04:35:11;;;;;;;3.70;0.80;;;;;;;16.68;100.00;99615.55;104186;1271;59370;-51
2023/08/11 04:37:40;;;;;;;4.30;0.70;;;;;;;16.69;100.00;99617.79;104718;1267;72046;-51
2023/08/11 04:40:13;;;;;;;2.00;0.70;;;;;;;16.72;100.00;99618.61;104383;1263;67566;-49
2023/08/11 04:42:46;;;;;;;0.80;0.70;;;;;;;16.77;100.00;99628.94;104685;1265;71514;-49
2023/08/11 04:45:16;;;;;;;1.00;0.80;;;;;;;16.78;100.00;99630.46;104791;1268;62272;-51
2023/08/11 04:47:44;;;;;;;1.80;0.90;;;;;;;16.79;100.00;99630.80;104586;1263;60752;-51
2023/08/11 04:50:16;;;;;;;2.70;0.80;;;;;;;16.81;100.00;99628.98;105066;1259;72282;-51
2023/08/11 04:52:43;;;;;;;2.70;0.70;;;;;;;16.85;100.00;99631.25;104544;1265;66712;-51
2023/08/11 04:55:14;;;;;;;1.10;0.90;;;;;;;16.87;100.00;99636.87;104427;1263;71460;-52
2023/08/11 04:57:41;;;;;;;1.10;0.70;;;;;;;16.89;100.00;99639.10;104599;1263;60011;-52
2023/08/11 05:00:16;;;;;;;5.10;1.30;;;;;;;16.91;100.00;99636.77;104350;1262;59739;-53
2023/08/11 05:02:45;;;;;;;3.50;0.90;;;;;;;16.92;100.00;99640.83;104482;1263;72189;-52
2023/08/11 05:05:13;;;;;;;1.60;0.80;;;;;;;16.94;100.00;99637.93;108497;1262;66920;-52
2023/08/11 05:07:41;;;;;;;1.80;0.90;;;;;;;16.96;100.00;99633.97;108386;1262;73155;-53
2023/08/11 05:10:09;;;;;;;3.10;0.80;;;;;;;17.01;100.00;99634.34;105259;1262;60391;-52
2023/08/11 05:12:36;;;;;;;3.60;0.80;;;;;;;17.05;100.00;99642.90;104055;1262;62142;-50
2023/08/11 05:15:04;;;;;;;1.90;0.70;;;;;;;17.07;100.00;99642.21;104238;1264;73052;-52
2023/08/11 05:17:32;;;;;;;2.80;0.70;;;;;;;17.09;100.00;99644.05;105947;1263;65617;-51
2023/08/11 05:19:59;;;;;;;1.20;0.80;;;;;;;17.12;100.00;99643.86;104239;1266;75618;-52
2023/08/11 05:22:26;;;;;;;1.70;0.90;;;;;;;17.15;100.00;99640.37;104244;1263;60341;-49
2023/08/11 05:24:54;;;;;;;2.70;0.80;;;;;;;17.19;100.00;99643.25;104322;1265;59713;-51
2023/08/11 05:27:21;;;;;;;3.20;1.00;;;;;;;17.23;100.00;99651.31;104136;1267;71290;-50
2023/08/11 05:29:49;;;;;;;1.30;0.80;;;;;;;17.26;100.00;99658.86;104288;1263;66302;-51
2023/08/11 05:32:17;;;;;;;1.10;0.80;;;;;;;17.28;100.00;99659.03;104399;1267;70893;-51
2023/08/11 05:34:45;;;;;;;1.10;0.80;;;;;;;17.29;100.00;99651.52;104418;1263;61648;-50
2023/08/11 05:37:12;;;;;;;2.80;0.80;;;;;;;17.30;100.00;99647.27;104308;1267;59639;-50
2023/08/11 05:39:40;;;;;;;1.10;0.80;;;;;;;17.30;100.00;99646.78;108559;1262;71314;-52
2023/08/11 05:42:08;;;;;;;1.20;0.80;;;;;;;17.33;100.00;99650.16;108481;1262;65623;-52
2023/08/11 05:44:35;;;;;;;3.30;0.70;;;;;;;17.38;100.00;99648.16;108449;1262;72446;-52
2023/08/11 05:47:03;;;;;;;2.80;1.00;;;;;;;17.46;100.00;99646.31;108524;1262;62888;-53
2023/08/11 05:49:30;;;;;;;1.40;0.70;;;;;;;17.54;100.00;99646.16;108421;1262;61110;-53
2023/08/11 05:51:57;;;;;;;1.30;0.80;;;;;;;17.64;100.00;99642.84;108529;1262;73046;-53
2023/08/11 05:54:24;;;;;;;1.90;0.80;;;;;;;17.74;100.00;99644.94;108488;1262;66758;-53
2023/08/11 05:56:54;;;;;;;2.40;1.10;;;;;;;17.85;100.00;99646.23;108367;1263;72726;-52
2023/08/11 05:59:21;;;;;;;2.00;1.00;;;;;;;17.97;100.00;99647.31;108488;1262;60064;-52
2023/08/11 06:01:49;;;;;;;2.00;0.90;;;;;;;18.07;100.00;99647.21;108635;1258;60352;-51
2023/08/11 06:04:16;;;;;;;2.80;1.30;;;;;;;18.13;100.00;99641.95;108516;1257;71132;-51
2023/08/11 06:06:44;;;;;;;4.50;0.90;;;;;;;18.19;100.00;99644.27;108729;1259;67291;-52
2023/08/11 06:09:11;;;;;;;2.20;0.90;;;;;;;18.25;100.00;99646.86;108750;1257;73540;-53
2023/08/11 06:11:38;;;;;;;2.70;1.00;;;;;;;18.30;100.00;99649.83;108673;1259;61670;-52
2023/08/11 06:14:06;;;;;;;3.60;1.00;;;;;;;18.37;100.00;99650.14;107295;1258;59993;-50
2023/08/11 06:16:33;;;;;;;4.00;1.00;;;;;;;18.45;100.00;99651.49;104683;1257;72057;-51
2023/08/11 06:19:00;;;;;;;4.50;1.10;;;;;;;18.55;100.00;99656.86;104529;1262;68986;-50
2023/08/11 06:21:28;;;;;;;2.20;0.90;;;;;;;18.66;100.00;99664.16;104710;1255;71254;-51
2023/08/11 06:23:55;;;;;;;4.90;1.50;;;;;;;18.77;100.00;99670.17;104836;1256;60691;-51
2023/08/11 06:26:22;;;;;;;3.70;1.00;;;;;;;18.87;100.00;99673.10;105001;1253;60498;-49
2023/08/11 06:28:50;;;;;;;3.90;0.90;;;;;;;18.98;100.00;99669.65;104652;1253;73087;-51
2023/08/11 06:31:19;;;;;;;2.40;0.90;;;;;;;19.08;100.00;99674.23;108969;1254;66236;-51
2023/08/11 06:33:47;;;;;;;1.90;1.00;;;;;;;19.20;100.00;99671.91;105263;1258;71405;-51
2023/08/11 06:36:14;;;;;;;3.00;1.00;;;;;;;19.32;100.00;99670.58;105512;1255;62081;-52
2023/08/11 06:38:42;;;;;;;2.70;1.00;;;;;;;19.44;100.00;99673.73;104761;1253;60439;-51
2023/08/11 06:41:10;;;;;;;2.40;1.40;;;;;;;19.57;100.00;99676.06;105394;1258;73007;-50
2023/08/11 06:43:38;;;;;;;3.90;1.00;;;;;;;19.69;100.00;99674.65;106128;1253;65942;-52
2023/08/11 06:46:06;;;;;;;2.00;0.80;;;;;;;19.77;100.00;99674.64;108629;1253;72705;-52
2023/08/11 06:48:34;;;;;;;1.60;0.80;;;;;;;19.84;100.00;99673.88;109022;1253;60050;-53
2023/08/11 06:51:02;;;;;;;1.10;0.90;;;;;;;19.92;100.00;99674.99;108811;1253;58974;-54
2023/08/11 06:53:29;;;;;;;3.40;0.90;;;;;;;19.98;100.00;99676.98;104878;1257;71757;-52
2023/08/11 06:55:57;;;;;;;3.60;0.80;;;;;;;20.03;100.00;99673.99;104894;1253;65661;-51
2023/08/11 06:58:24;;;;;;;4.60;0.80;;;;;;;20.07;100.00;99675.30;104923;1257;71383;-52
2023/08/11 07:00:53;;;;;;;1.60;0.70;;;;;;;20.12;100.00;99679.45;105612;1256;59704;-50
2023/08/11 07:03:21;;;;;;;2.70;0.80;;;;;;;20.14;100.00;99681.08;104682;1254;60017;-50
2023/08/11 07:05:51;;;;;;;3.90;0.70;;;;;;;20.13;100.00;99684.21;104728;1254;71764;-52
2023/08/11 07:08:19;;;;;;;2.30;0.80;;;;;;;20.12;100.00;99685.84;105220;1256;66161;-51
2023/08/11 07:10:47;;;;;;;7.20;1.00;;;;;;;20.11;100.00;99685.12;106112;1255;73649;-51
2023/08/11 07:13:14;;;;;;;2.00;0.90;;;;;;;20.14;100.00;99687.09;105201;1256;61685;-52
2023/08/11 07:15:42;;;;;;;1.10;0.70;;;;;;;20.19;100.00;99687.74;104953;1253;59913;-50
2023/08/11 07:18:10;;;;;;;1.20;0.70;;;;;;;20.24;100.00;99685.79;104878;1253;71779;-50
2023/08/11 07:20:44;;;;;;;1.50;0.70;;;;;;;20.30;100.00;99687.65;104953;1254;66902;-51
2023/08/11 07:23:11;;;;;;;2.00;0.80;;;;;;;20.34;100.00;99691.64;106542;1255;71365;-50
2023/08/11 07:25:39;;;;;;;1.90;1.00;;;;;;;20.41;100.00;99694.87;104659;1258;60087;-51
2023/08/11 07:28:06;;;;;;;3.00;0.80;;;;;;;20.46;100.00;99698.60;105036;1253;59975;-50
2023/08/11 07:30:36;;;;;;;1.60;0.80;;;;;;;20.51;100.00;99697.09;104642;1256;71773;-51
2023/08/11 07:33:03;;;;;;;0.80;0.60;;;;;;;20.56;100.00;99695.38;107048;1253;65636;-53
2023/08/11 07:35:31;;;;;;;1.70;0.70;;;;;;;20.57;100.00;99697.40;105143;1253;72664;-53
2023/08/11 07:37:58;;;;;;;1.70;0.80;;;;;;;20.61;100.00;99700.13;105043;1256;59756;-52
2023/08/11 07:40:26;;;;;;;1.20;0.80;;;;;;;20.67;100.00;99701.38;104647;1258;60302;-51
2023/08/11 07:42:53;;;;;;;3.20;0.70;;;;;;;20.73;100.00;99701.41;104657;1253;72342;-51
2023/08/11 07:45:21;;;;;;;1.70;0.70;;;;;;;20.78;100.00;99704.80;104797;1256;67775;-52
2023/08/11 07:47:48;;;;;;;1.30;0.70;;;;;;;20.83;100.00;99711.34;104859;1256;71361;-52
2023/08/11 07:50:15;;;;;;;1.00;0.70;;;;;;;20.87;100.00;99712.14;107814;1258;61923;-53
2023/08/11 07:52:43;;;;;;;4.60;1.00;;;;;;;20.93;100.00;99717.86;104851;1259;59715;-52
2023/08/11 07:55:10;;;;;;;2.30;0.90;;;;;;;20.96;100.00;99717.33;104918;1262;73881;-54
2023/08/11 07:57:38;;;;;;;1.30;0.70;;;;;;;21.03;100.00;99716.95;105675;1256;66769;-53
2023/08/11 08:00:06;;;;;;;1.60;0.70;;;;;;;21.09;100.00;99721.05;104922;1256;71428;-52
2023/08/11 08:02:38;;;;;;;0.90;0.60;;;;;;;21.15;100.00;99721.23;105033;1253;61708;-53
2023/08/11 08:05:06;;;;;;;5.30;0.80;;;;;;;21.23;100.00;99728.94;105159;1253;60553;-50
2023/08/11 08:07:39;;;;;;;2.00;0.70;;;;;;;21.33;100.00;99735.89;105572;1254;72951;-52
2023/08/11 08:10:11;;;;;;;0.80;0.60;;;;;;;21.38;100.00;99733.78;104958;1253;66751;-51
2023/08/11 08:12:39;;;;;;;1.30;0.60;;;;;;;21.41;100.00;99728.35;104841;1257;72700;-51
2023/08/11 08:15:08;;;;;;;1.50;0.70;;;;;;;21.45;100.00;99731.95;104877;1259;59973;-52
2023/08/11 08:17:35;;;;;;;2.00;0.60;;;;;;;21.50;100.00;99737.92;105803;1257;59686;-50
2023/08/11 08:20:04;;;;;;;1.10;0.70;;;;;;;21.52;100.00;99737.89;105074;1259;72261;-51
2023/08/11 08:22:35;;;;;;;7.70;1.10;;;;;;;21.53;100.00;99735.00;105347;1253;67573;-52
2023/08/11 08:25:06;;;;;;;1.90;0.70;;;;;;;21.56;100.00;99740.83;104837;1255;71409;-53
2023/08/11 08:27:35;;;;;;;3.20;0.80;;;;;;;21.56;100.00;99739.36;107392;1253;60569;-53
2023/08/11 08:30:03;;;;;;;3.20;0.60;;;;;;;21.58;100.00;99739.21;104888;1256;60901;-52
2023/08/11 08:32:32;;;;;;;3.90;0.70;;;;;;;21.62;100.00;99740.25;104570;1259;72926;-51
2023/08/11 08:35:00;;;;;;;1.50;0.60;;;;;;;21.69;100.00;99746.30;105243;1255;66427;-51
2023/08/11 08:37:28;;;;;;;0.80;0.60;;;;;;;21.79;100.00;99744.86;105044;1256;72020;-52
2023/08/11 08:39:56;;;;;;;1.30;0.70;;;;;;;21.91;100.00;99746.05;104977;1257;60780;-54
2023/08/11 08:42:25;;;;;;;0.80;0.60;;;;;;;22.01;100.00;99743.14;105030;1256;60461;-53
2023/08/11 08:44:53;;;;;;;1.50;0.90;;;;;;;22.11;100.00;99746.90;109118;1255;74203;-53
2023/08/11 08:47:21;;;;;;;2.70;0.60;;;;;;;22.23;100.00;99747.94;109158;1256;65548;-53
2023/08/11 08:49:48;;;;;;;0.80;0.60;;;;;;;22.36;100.00;99751.23;108957;1253;71447;-53
2023/08/11 08:52:15;;;;;;;2.70;0.60;;;;;;;22.47;100.00;99754.16;109090;1254;59041;-53
2023/08/11 08:54:44;;;;;;;1.60;0.70;;;;;;;22.57;100.00;99759.35;108839;1256;60040;-53
2023/08/11 08:57:11;;;;;;;1.10;0.60;;;;;;;22.63;100.00;99764.13;109102;1253;73995;-53
2023/08/11 08:59:43;;;;;;;0.70;0.50;;;;;;;22.65;100.00;99762.84;109119;1254;66763;-53
2023/08/11 09:02:10;;;;;;;1.60;0.50;;;;;;;22.65;100.00;99759.48;109089;1254;72666;-52
2023/08/11 09:04:38;;;;;;;0.70;0.50;;;;;;;22.67;100.00;99764.80;109070;1253;58871;-55
2023/08/11 09:07:06;;;;;;;4.10;0.50;;;;;;;22.69;100.00;99769.42;109040;1253;60890;-54
2023/08/11 09:09:33;;;;;;;2.80;0.40;;;;;;;22.70;100.00;99771.48;109202;1253;72507;-54
2023/08/11 09:12:01;;;;;;;0.50;0.50;;;;;;;22.71;100.00;99771.81;109198;1253;67258;-54
2023/08/11 09:14:28;;;;;;;2.50;0.50;;;;;;;22.71;100.00;99770.30;109062;1256;71392;-53
2023/08/11 09:16:58;;;;;;;6.40;0.60;;;;;;;22.72;100.00;99768.54;108881;1253;60489;-53
2023/08/11 09:19:25;;;;;;;2.00;0.60;;;;;;;22.78;100.00;99770.15;105144;1254;60587;-51
2023/08/11 09:21:52;;;;;;;1.80;0.50;;;;;;;22.88;100.00;99772.45;105002;1256;72560;-52
2023/08/11 09:24:22;;;;;;;1.10;0.40;;;;;;;22.99;100.00;99774.27;105135;1259;65506;-51
2023/08/11 09:26:50;;;;;;;2.10;0.40;;;;;;;23.07;100.00;99775.36;104949;1256;72638;-51
2023/08/11 09:29:18;;;;;;;4.90;0.50;;;;;;;23.07;100.00;99775.30;104914;1256;60461;-52
2023/08/11 09:31:53;;;;;;;3.50;0.60;;;;;;;23.05;100.00;99773.02;104885;1256;60503;-52
2023/08/11 09:34:21;;;;;;;0.90;0.50;;;;;;;23.01;100.00;99772.80;105171;1253;72649;-52
2023/08/11 09:36:48;;;;;;;1.20;0.60;;;;;;;22.98;100.00;99768.84;105575;1258;66812;-52
2023/08/11 09:39:16;;;;;;;2.70;1.30;;;;;;;22.97;100.00;99767.28;104863;1259;71319;-51
2023/08/11 09:41:45;;;;;;;1.70;0.50;;;;;;;22.97;100.00;99767.31;104945;1254;60568;-52
2023/08/11 09:44:16;;;;;;;1.00;0.60;;;;;;;22.97;100.00;99769.17;104934;1253;60604;-50
2023/08/11 09:46:44;;;;;;;0.80;0.50;;;;;;;22.98;100.00;99770.68;105758;1259;74418;-52
2023/08/11 09:49:12;;;;;;;2.60;0.60;;;;;;;22.97;100.00;99765.30;105371;1253;66715;-52
2023/08/11 09:51:40;;;;;;;0.90;0.60;;;;;;;23.01;100.00;99764.94;104918;1259;72678;-51
2023/08/11 09:54:09;;;;;;;2.50;0.70;;;;;;;23.05;100.00;99757.95;105004;1259;63306;-52
2023/08/11 09:56:37;;;;;;;1.40;0.60;;;;;;;23.10;100.00;99757.11;104957;1256;60928;-53
2023/08/11 09:59:07;;;;;;;1.20;0.50;;;;;;;23.19;100.00;99754.92;104949;1256;73076;-53
2023/08/11 10:01:35;;;;;;;2.50;0.50;;;;;;;23.27;100.00;99755.91;104948;1257;65863;-54
2023/08/11 10:04:07;;;;;;;6.60;0.50;;;;;;;23.31;100.00;99757.26;106275;1254;71317;-51
2023/08/11 10:06:36;;;;;;;0.60;0.50;;;;;;;23.34;100.00;99758.31;105410;1259;60992;-53
2023/08/11 10:09:04;;;;;;;4.50;0.70;;;;;;;23.34;100.00;99754.98;105245;1257;60448;-53
2023/08/11 10:11:33;;;;;;;3.60;0.50;;;;;;;23.37;100.00;99758.70;105107;1259;73879;-53
2023/08/11 10:14:02;;;;;;;1.40;0.50;;;;;;;23.41;100.00;99759.79;104908;1253;67270;-51
2023/08/11 10:16:30;;;;;;;1.30;0.50;;;;;;;23.44;100.00;99758.91;104534;1256;71440;-53
2023/08/11 10:18:58;;;;;;;0.60;0.50;;;;;;;23.45;100.00;99762.17;109006;1253;58802;-53
2023/08/11 10:21:25;;;;;;;0.50;0.30;;;;;;;23.41;100.00;99758.36;105961;1257;60411;-52
2023/08/11 10:23:53;;;;;;;4.00;0.30;;;;;;;23.39;100.00;99752.81;104509;1260;73180;-52
2023/08/11 10:26:21;;;;;;;0.30;0.30;;;;;;;23.40;100.00;99754.67;107734;1254;67428;-52
2023/08/11 10:28:48;;;;;;;2.20;0.30;;;;;;;23.42;100.00;99753.05;104785;1256;71352;-53
2023/08/11 10:31:16;;;;;;;0.70;0.40;;;;;;;23.44;100.00;99756.41;104539;1253;60470;-53
2023/08/11 10:33:48;;;;;;;1.40;0.40;;;;;;;23.49;100.00;99762.50;105148;1253;62528;-52
2023/08/11 10:36:17;;;;;;;1.10;0.40;;;;;;;23.51;100.00;99761.75;105154;1253;72647;-52
2023/08/11 10:38:44;;;;;;;2.50;0.50;;;;;;;23.50;100.00;99761.61;105039;1259;67403;-52
2023/08/11 10:41:16;;;;;;;0.30;0.30;;;;;;;23.52;100.00;99760.36;105131;1259;72680;-52
2023/08/11 10:43:46;;;;;;;2.70;0.50;;;;;;;23.54;100.00;99753.90;105379;1257;60642;-52
2023/08/11 10:46:19;;;;;;;1.00;0.50;;;;;;;23.59;100.00;99749.71;105017;1259;60673;-52
2023/08/11 10:48:47;;;;;;;0.90;0.40;;;;;;;23.62;100.00;99751.38;105032;1259;73814;-53
2023/08/11 10:51:31;;;;;;;1.20;0.70;;;;;;;23.67;100.00;99744.98;105116;1253;65807;-53
2023/08/11 10:54:11;;;;;;;0.80;0.40;;;;;;;23.74;100.00;99750.17;104878;1255;71462;-52
2023/08/11 10:56:40;;;;;;;1.80;0.40;;;;;;;23.82;100.00;99744.60;104761;1257;60626;-53
2023/08/11 10:59:11;;;;;;;0.60;0.50;;;;;;;23.89;100.00;99741.30;105338;1253;60469;-51
2023/08/11 11:01:40;;;;;;;0.60;0.50;;;;;;;23.95;100.00;99736.98;104978;1260;73851;-53
2023/08/11 11:04:08;;;;;;;0.70;0.60;;;;;;;24.01;100.00;99739.27;104990;1253;67338;-55
2023/08/11 11:06:35;;;;;;;1.30;0.40;;;;;;;24.08;100.00;99740.91;104881;1259;72988;-53
2023/08/11 11:09:03;;;;;;;1.20;0.40;;;;;;;24.17;100.00;99749.33;104940;1259;60706;-53
2023/08/11 11:11:31;;;;;;;2.50;0.50;;;;;;;24.17;100.00;99751.77;105060;1258;60455;-55
2023/08/11 11:13:58;;;;;;;0.40;0.40;;;;;;;24.14;100.00;99756.21;104830;1259;73826;-54
2023/08/11 11:16:26;;;;;;;0.40;0.30;;;;;;;24.12;100.00;99752.08;104869;1258;67314;-53
2023/08/11 11:18:54;;;;;;;0.40;0.40;;;;;;;24.16;100.00;99749.12;105448;1257;71512;-52
2023/08/11 11:21:22;;;;;;;0.90;0.30;;;;;;;24.24;100.00;99751.60;105066;1254;60861;-53
2023/08/11 11:23:50;;;;;;;0.20;0.20;;;;;;;24.31;100.00;99751.98;104965;1253;60559;-52
2023/08/11 11:26:25;;;;;;;1.00;0.40;;;;;;;24.31;100.00;99753.05;105012;1253;73856;-53